Bemidji, MN

10:38 AM CDT on May 22, 2017 (GMT -0500)
Bemidji-Beltrami County

Weather History for KBJI - March, 2014

Change the Weather History Date:

Sunday, March 2, 2014

  Actual Average Record
Temperature  
Mean Temperature -14 °F -  
Max Temperature -3 °F 29 °F 56 °F (1992)
Min Temperature -25 °F 6 °F -30 °F (1950)
Degree Days  
Heating Degree Days 79    
Moisture  
Dew Point -24 °F    
Average Humidity 66    
Maximum Humidity 79    
Minimum Humidity 53    
Precipitation  
Precipitation 0.00 in - - ()
Sea Level Pressure  
Sea Level Pressure 30.42 in    
Wind  
Wind Speed 7 mph (West)    
Max Wind Speed 14 mph    
Max Gust Speed 16 mph    
Visibility 10 miles    
Events      
Averages and records for this station are not official NWS values.
T = Trace of Precipitation, MM = Missing Value Source: NWS Daily Summary

Daily Weather History Graph

Daily Weather History Graph

Search for Another Location

Airport or City:

Trip Planner

Search our weather history database for the weather conditions in past years. The results will help you decide how hot, cold, wet, or windy it might be!

Date:

Astronomy

Mar. 02, 2014 Rise Set
Actual Time 6:58 AM CST 6:06 PM CST
Civil Twilight 6:27 AM CST 6:37 PM CST
Nautical Twilight 5:51 AM CST 7:12 PM CST
Astronomical Twilight 5:16 AM CST 7:48 PM CST
Moon 7:21 AM CST (3/2) 8:14 PM CST (3/2)
Length of Visible Light 12h 09m
Length of Day
11h 08m
Waxing Crescent, 3% of the Moon is Illuminated
Mar 2
Waxing Crescent
Mar 8
First Quarter
Mar 16
Full
Mar 23
Last Quarter
Mar 30
New

Hourly Weather History & Observations

Time (CST) Temp. Windchill Dew Point Humidity Pressure Visibility Wind Dir Wind Speed Gust Speed Precip Events Conditions
12:09 AM -24.0 °F -43.4 °F -29.7 °F 74% 30.42 in 10.0 mi West 8.1 mph - N/A   Clear
12:29 AM -23.8 °F -39.8 °F -29.6 °F 74% 30.42 in 10.0 mi West 5.8 mph - N/A   Clear
12:49 AM -24.7 °F -40.9 °F -31.0 °F 72% 30.42 in 10.0 mi West 5.8 mph - N/A   Clear
1:09 AM -24.0 °F -40.0 °F -29.9 °F 74% 30.42 in 10.0 mi WSW 5.8 mph - N/A   Clear
1:29 AM -24.7 °F -38.7 °F -31.0 °F 72% 30.41 in 10.0 mi West 4.6 mph - N/A   Clear
1:49 AM -23.8 °F -37.7 °F -29.7 °F 74% 30.41 in 10.0 mi WSW 4.6 mph - N/A   Clear
2:09 AM -23.8 °F -39.8 °F -29.6 °F 74% 30.41 in 10.0 mi WSW 5.8 mph - N/A   Clear
2:29 AM -24.3 °F -35.7 °F -30.6 °F 72% 30.41 in 10.0 mi WSW 3.5 mph - N/A   Clear
2:49 AM -25.4 °F -39.6 °F -31.2 °F 74% 30.41 in 10.0 mi WSW 4.6 mph - N/A   Clear
3:09 AM -25.2 °F -39.4 °F -31.0 °F 74% 30.40 in 10.0 mi WSW 4.6 mph - N/A   Clear
3:29 AM -25.6 °F -39.8 °F -31.4 °F 74% 30.40 in 10.0 mi WSW 4.6 mph - N/A   Clear
3:49 AM -25.2 °F -43.3 °F -31.0 °F 74% 30.40 in 10.0 mi WSW 6.9 mph - N/A   Clear
4:09 AM -24.7 °F -40.9 °F -30.1 °F 76% 30.40 in 10.0 mi WSW 5.8 mph - N/A   Clear
4:29 AM -24.7 °F -38.7 °F -30.1 °F 76% 30.40 in 10.0 mi WSW 4.6 mph - N/A   Scattered Clouds
4:49 AM -24.3 °F -40.4 °F -30.5 °F 73% 30.39 in 10.0 mi WSW 5.8 mph - N/A   Scattered Clouds
5:09 AM -24.0 °F -41.8 °F -29.7 °F 74% 30.39 in 10.0 mi WSW 6.9 mph - N/A   Clear
5:29 AM -23.8 °F -41.6 °F -29.6 °F 74% 30.40 in 10.0 mi WSW 6.9 mph - N/A   Clear
5:49 AM -23.3 °F -41.0 °F -29.6 °F 72% 30.39 in 10.0 mi WSW 6.9 mph - N/A   Clear
6:09 AM -23.1 °F -38.9 °F -29.4 °F 72% 30.39 in 10.0 mi WSW 5.8 mph - N/A   Clear
6:29 AM -23.6 °F -41.4 °F -29.6 °F 74% 30.39 in 10.0 mi West 6.9 mph - N/A   Clear
6:49 AM -23.3 °F -43.9 °F -29.4 °F 73% 30.39 in 10.0 mi West 9.2 mph - N/A   Clear
7:09 AM -23.8 °F -43.2 °F -29.9 °F 73% 30.39 in 10.0 mi West 8.1 mph - N/A   Scattered Clouds
7:29 AM -22.9 °F -43.4 °F -29.2 °F 72% 30.39 in 10.0 mi West 9.2 mph - N/A   Scattered Clouds
7:49 AM -22.2 °F -42.6 °F -28.7 °F 72% 30.40 in 10.0 mi West 9.2 mph - N/A   Scattered Clouds
8:09 AM -21.1 °F -41.2 °F -28.5 °F 69% 30.41 in 10.0 mi West 9.2 mph - N/A   Scattered Clouds
8:29 AM -19.8 °F -43.0 °F -27.4 °F 68% 30.40 in 10.0 mi West 12.7 mph - N/A   Scattered Clouds
8:49 AM -18.6 °F -41.4 °F -26.7 °F 66% 30.41 in 10.0 mi West 12.7 mph - N/A   Clear
9:09 AM -17.7 °F -41.2 °F -26.5 °F 64% 30.42 in 10.0 mi West 13.8 mph - N/A   Clear
9:29 AM -16.8 °F -38.1 °F -26.5 °F 61% 30.42 in 10.0 mi West 11.5 mph - N/A   Clear
9:49 AM -15.3 °F -35.3 °F -25.1 °F 62% 30.42 in 10.0 mi West 10.4 mph - N/A   Clear
10:09 AM -14.4 °F -34.2 °F -24.7 °F 60% 30.42 in 10.0 mi West 10.4 mph - N/A   Clear
10:29 AM -13.2 °F -32.6 °F -23.8 °F 59% 30.42 in 10.0 mi West 10.4 mph - N/A   Clear
10:49 AM -11.7 °F -31.8 °F -22.4 °F 59% 30.42 in 10.0 mi West 11.5 mph - N/A   Clear
11:09 AM -10.7 °F -30.5 °F -22.0 °F 57% 30.42 in 10.0 mi West 11.5 mph - N/A   Clear
11:29 AM -9.8 °F -28.3 °F -21.1 °F 57% 30.43 in 10.0 mi West 10.4 mph - N/A   Clear
11:49 AM -8.7 °F -29.7 °F -20.4 °F 57% 30.43 in 10.0 mi West 13.8 mph - N/A   Clear
12:09 PM -7.8 °F -25.9 °F -19.7 °F 56% 30.43 in 10.0 mi West 10.4 mph - N/A   Clear
12:29 PM -6.7 °F -23.5 °F -18.8 °F 56% 30.43 in 10.0 mi West 9.2 mph - N/A   Clear
12:49 PM -6.3 °F -25.0 °F -18.4 °F 56% 30.43 in 10.0 mi West 11.5 mph 16.1 mph N/A   Clear
1:09 PM -5.8 °F -23.4 °F -18.4 °F 55% 30.42 in 10.0 mi WNW 10.4 mph - N/A   Clear
1:29 PM -5.1 °F -22.5 °F -17.7 °F 55% 30.42 in 10.0 mi West 10.4 mph - N/A   Clear
1:49 PM -4.9 °F -23.2 °F -17.5 °F 55% 30.42 in 10.0 mi West 11.5 mph - N/A   Clear
2:09 PM -4.4 °F -19.5 °F -17.5 °F 53% 30.42 in 10.0 mi West 8.1 mph - N/A   Clear
2:29 PM -3.6 °F -20.7 °F -16.6 °F 54% 30.42 in 10.0 mi West 10.4 mph - N/A   Clear
2:49 PM -3.5 °F -22.3 °F -16.6 °F 53% 30.42 in 10.0 mi West 12.7 mph - N/A   Clear
3:09 PM -3.6 °F -19.7 °F -16.6 °F 54% 30.42 in 10.0 mi West 9.2 mph - N/A   Clear
3:29 PM -3.6 °F -20.7 °F -16.2 °F 55% 30.42 in 10.0 mi West 10.4 mph - N/A   Clear
3:49 PM -4.0 °F -22.1 °F -16.8 °F 54% 30.42 in 10.0 mi West 11.5 mph - N/A   Clear
4:09 PM -4.2 °F -21.4 °F -17.0 °F 54% 30.42 in 10.0 mi West 10.4 mph - N/A   Clear
4:29 PM -4.9 °F -23.2 °F -17.1 °F 56% 30.43 in 10.0 mi West 11.5 mph - N/A   Clear
4:49 PM -5.4 °F -23.9 °F -17.7 °F 56% 30.43 in 10.0 mi West 11.5 mph - N/A   Clear
5:09 PM -6.2 °F -22.8 °F -18.2 °F 56% 30.43 in 10.0 mi West 9.2 mph - N/A   Clear
5:29 PM -6.7 °F -22.3 °F -18.4 °F 57% 30.42 in 10.0 mi WNW 8.1 mph - N/A   Clear
5:49 PM -7.6 °F -25.7 °F -18.4 °F 59% 30.42 in 10.0 mi West 10.4 mph - N/A   Clear
6:09 PM -8.5 °F -24.5 °F -18.9 °F 60% 30.42 in 10.0 mi West 8.1 mph - N/A   Clear
6:29 PM -9.6 °F -25.8 °F -19.3 °F 62% 30.43 in 10.0 mi WNW 8.1 mph - N/A   Clear
6:49 PM -10.5 °F -25.6 °F -19.5 °F 65% 30.43 in 10.0 mi WNW 6.9 mph - N/A   Clear
7:09 PM -11.2 °F -27.8 °F -19.5 °F 67% 30.43 in 10.0 mi WNW 8.1 mph - N/A   Clear
7:29 PM -11.4 °F -25.1 °F -19.5 °F 67% 30.44 in 10.0 mi West 5.8 mph - N/A   Clear
7:49 PM -12.3 °F -26.1 °F -19.8 °F 69% 30.43 in 10.0 mi West 5.8 mph - N/A   Clear
8:09 PM -13.0 °F -27.0 °F -20.2 °F 70% 30.43 in 10.0 mi West 5.8 mph - N/A   Clear
8:29 PM -13.9 °F -28.1 °F -20.7 °F 71% 30.43 in 10.0 mi West 5.8 mph - N/A   Clear
8:49 PM -13.4 °F -27.4 °F -20.2 °F 71% 30.43 in 10.0 mi WSW 5.8 mph - N/A   Clear
9:09 PM -13.9 °F -26.1 °F -20.4 °F 73% 30.42 in 10.0 mi West 4.6 mph - N/A   Clear
9:29 PM -15.2 °F -27.6 °F -21.5 °F 73% 30.42 in 10.0 mi West 4.6 mph - N/A   Clear
9:49 PM -14.8 °F -24.8 °F -20.4 °F 76% 30.42 in 10.0 mi West 3.5 mph - N/A   Clear
10:09 PM -14.6 °F -24.5 °F -20.4 °F 75% 30.43 in 10.0 mi West 3.5 mph - N/A   Clear
10:29 PM -14.8 °F -24.8 °F -20.2 °F 77% 30.43 in 10.0 mi West 3.5 mph - N/A   Clear
10:49 PM -16.1 °F - -21.1 °F 78% 30.43 in 10.0 mi Calm Calm - N/A   Clear
11:09 PM -16.1 °F - -21.1 °F 78% 30.43 in 10.0 mi Calm Calm - N/A   Clear
11:29 PM -16.1 °F - -20.7 °F 79% 30.43 in 10.0 mi Calm Calm - N/A   Clear
11:49 PM -18.8 °F - -23.8 °F 78% 30.42 in 10.0 mi Calm Calm - N/A   Clear